Time;durP1;ratioP1;P1;durP2;ratioP2;P2;SDS_P1;SDS_P2;PMS_P1;PMS_P2;Temp;Humidity;BMP_temperature;BMP_pressure;BME280_temperature;BME280_humidity;BME280_pressure;Samples;Min_cycle;Max_cycle;Signal;HPM_P1;HPM_P2
2022/06/08 00:01:40;;;;;;;5.47;3.22;;;;;;;14.17;84.16;101013.06;6213599;23;20051;-86
2022/06/08 00:04:06;;;;;;;5.33;3.17;;;;;;;14.14;85.50;101006.16;6215325;23;20005;-85
2022/06/08 00:06:32;;;;;;;5.13;3.25;;;;;;;14.13;84.58;101000.97;6214900;23;20127;-86
2022/06/08 00:08:57;;;;;;;4.53;3.00;;;;;;;14.12;84.74;101004.47;6215379;23;20036;-85
2022/06/08 00:11:24;;;;;;;5.03;3.03;;;;;;;14.12;84.56;101001.88;6216538;23;20046;-86
2022/06/08 00:13:50;;;;;;;5.23;3.20;;;;;;;14.11;84.51;100992.34;6216675;23;20008;-86
2022/06/08 00:16:16;;;;;;;4.65;2.90;;;;;;;14.09;84.70;100997.59;6216366;23;20004;-85
2022/06/08 00:18:44;;;;;;;5.47;3.22;;;;;;;14.07;84.42;100995.94;6216431;23;20075;-86
2022/06/08 00:21:11;;;;;;;3.97;2.80;;;;;;;14.01;84.78;100979.53;6217076;23;20330;-85
2022/06/08 00:23:37;;;;;;;5.53;3.20;;;;;;;13.98;84.65;100981.38;6215837;23;20007;-86
2022/06/08 00:26:02;;;;;;;5.60;3.38;;;;;;;13.98;84.45;100982.22;6216921;23;20007;-86
2022/06/08 00:28:28;;;;;;;6.60;3.60;;;;;;;13.98;84.71;100979.63;6216603;23;20008;-86
2022/06/08 00:30:53;;;;;;;5.00;3.37;;;;;;;13.95;84.96;100978.84;6215330;23;20054;-86
2022/06/08 00:33:18;;;;;;;4.47;2.80;;;;;;;13.88;84.72;100973.81;6217223;23;19996;-86
2022/06/08 00:35:44;;;;;;;3.20;2.43;;;;;;;13.86;85.07;100975.59;6216752;23;20009;-85
2022/06/08 00:38:09;;;;;;;4.23;2.83;;;;;;;13.85;85.08;100967.78;6215438;23;20079;-86
2022/06/08 00:41:19;;;;;;;6.57;3.30;;;;;;;13.84;84.77;100973.94;6217209;23;20007;-86
2022/06/08 00:43:44;;;;;;;5.68;3.40;;;;;;;13.83;84.63;100965.25;6197020;23;20005;-86
2022/06/08 00:46:11;;;;;;;5.67;3.20;;;;;;;13.82;85.00;100963.53;6217034;23;20326;-86
2022/06/08 00:48:43;;;;;;;5.05;3.20;;;;;;;13.79;84.66;100958.38;6216627;23;20007;-86
2022/06/08 00:51:09;;;;;;;4.65;3.10;;;;;;;13.77;84.77;100960.19;6216067;23;20005;-86
2022/06/08 00:53:40;;;;;;;4.35;3.00;;;;;;;13.74;85.01;100960.28;6216743;23;20022;-86
2022/06/08 00:56:12;;;;;;;4.63;3.13;;;;;;;13.71;84.72;100956.00;6216466;23;20430;-86
2022/06/08 00:58:38;;;;;;;4.93;3.40;;;;;;;13.68;84.69;100950.88;6215447;23;20004;-86
2022/06/08 01:01:03;;;;;;;5.70;3.40;;;;;;;13.68;84.51;100953.47;6216521;23;20464;-86
2022/06/08 01:03:29;;;;;;;5.27;3.53;;;;;;;13.65;84.70;100947.47;6216639;23;20007;-86
2022/06/08 01:06:01;;;;;;;5.07;3.40;;;;;;;13.63;84.99;100941.44;6215397;23;20001;-85
2022/06/08 01:08:40;;;;;;;4.70;3.10;;;;;;;13.58;85.04;100938.97;6216569;23;20009;-86
2022/06/08 01:11:31;;;;;;;5.68;3.25;;;;;;;13.53;84.98;100940.81;6216190;23;20028;-85
2022/06/08 01:14:01;;;;;;;4.35;3.00;;;;;;;13.51;85.24;100943.47;6199661;23;20423;-86
2022/06/08 01:16:27;;;;;;;5.80;3.60;;;;;;;13.51;84.82;100934.81;6216789;23;20004;-86
2022/06/08 01:18:52;;;;;;;6.43;3.93;;;;;;;13.51;85.28;100929.59;6214610;23;20005;-86
2022/06/08 01:21:20;;;;;;;5.87;3.60;;;;;;;13.47;84.70;100926.19;6216664;23;20035;-87
2022/06/08 01:23:57;;;;;;;5.57;3.50;;;;;;;13.44;84.90;100918.47;6216247;23;20325;-87
2022/06/08 01:26:48;;;;;;;5.38;3.33;;;;;;;13.40;85.11;100917.69;6215954;23;20004;-86
2022/06/08 01:29:21;;;;;;;4.65;3.00;;;;;;;13.36;85.20;100909.94;6216595;23;20001;-86
2022/06/08 01:32:02;;;;;;;6.10;3.75;;;;;;;13.34;85.83;100917.81;6216085;23;20430;-87
2022/06/08 01:34:52;;;;;;;5.45;3.60;;;;;;;13.31;85.02;100911.81;6215684;23;20051;-86
2022/06/08 01:37:48;;;;;;;4.55;3.10;;;;;;;13.28;86.08;100903.19;6211599;23;20009;-87
2022/06/08 01:40:46;;;;;;;5.35;3.30;;;;;;;13.24;85.50;100895.50;6215531;23;20083;-86
2022/06/08 01:43:34;;;;;;;4.13;2.80;;;;;;;13.21;85.20;100899.03;6216373;23;20008;-87
2022/06/08 01:46:23;;;;;;;6.10;3.70;;;;;;;13.19;85.44;100892.13;6216296;23;20031;-87
2022/06/08 01:49:21;;;;;;;4.80;3.15;;;;;;;13.17;85.19;100889.56;6215624;23;20507;-87
2022/06/08 01:52:03;;;;;;;6.53;4.00;;;;;;;13.18;85.48;100887.81;6214672;23;20012;-87
2022/06/08 01:54:52;;;;;;;6.07;3.63;;;;;;;13.15;85.54;100883.53;6215548;23;20452;-87
2022/06/08 01:57:27;;;;;;;6.07;3.50;;;;;;;13.12;85.32;100881.00;6216655;23;20005;-87
2022/06/08 02:00:07;;;;;;;5.80;3.50;;;;;;;13.11;86.07;100874.09;6215748;23;20019;-87
2022/06/08 02:02:53;;;;;;;4.78;3.17;;;;;;;13.09;86.00;100865.47;6215180;23;20035;-87
2022/06/08 02:05:39;;;;;;;5.05;3.30;;;;;;;13.06;86.42;100857.72;6216704;23;20000;-87
2022/06/08 02:08:30;;;;;;;4.55;3.03;;;;;;;13.06;85.59;100860.31;6215111;23;20020;-87
2022/06/08 02:11:00;;;;;;;5.70;3.50;;;;;;;13.07;85.81;100859.44;6215803;23;20453;-87
2022/06/08 02:13:36;;;;;;;5.28;3.33;;;;;;;13.07;85.58;100855.06;6216368;23;20445;-87
2022/06/08 02:16:08;;;;;;;4.40;3.00;;;;;;;13.06;86.20;100847.31;6216579;23;20031;-86
2022/06/08 02:18:48;;;;;;;6.93;3.83;;;;;;;13.02;86.54;100837.84;6216784;23;20012;-87
2022/06/08 02:21:26;;;;;;;5.70;3.50;;;;;;;12.99;86.29;100841.38;6215991;23;20321;-86
2022/06/08 02:23:57;;;;;;;5.72;3.47;;;;;;;12.98;86.40;100837.94;6215610;23;20001;-87
2022/06/08 02:26:48;;;;;;;5.97;3.58;;;;;;;12.96;85.93;100831.03;6216170;23;20004;-86
2022/06/08 02:29:21;;;;;;;4.78;3.15;;;;;;;12.94;86.08;100828.47;6210322;23;20434;-87
2022/06/08 02:31:55;;;;;;;3.85;2.90;;;;;;;12.94;85.76;100827.63;6215767;23;20004;-87
2022/06/08 02:34:34;;;;;;;4.65;3.05;;;;;;;12.89;85.58;100819.06;6216407;23;20004;-86
2022/06/08 02:37:17;;;;;;;4.38;2.95;;;;;;;12.88;85.82;100819.97;6214987;23;20028;-87
2022/06/08 02:39:52;;;;;;;4.82;3.15;;;;;;;12.86;85.69;100820.03;6215215;23;20004;-87
2022/06/08 02:42:26;;;;;;;5.88;3.50;;;;;;;12.85;85.70;100812.22;6215943;23;20005;-87
2022/06/08 02:45:11;;;;;;;5.40;3.60;;;;;;;12.82;85.77;100807.97;6215050;23;20421;-86
2022/06/08 02:47:42;;;;;;;6.20;3.67;;;;;;;12.81;85.53;100804.50;6214755;23;20009;-85
2022/06/08 02:50:10;;;;;;;4.85;3.22;;;;;;;12.79;85.61;100810.63;6214774;23;20496;-87
2022/06/08 02:52:36;;;;;;;5.72;3.58;;;;;;;12.75;85.59;100802.03;6215801;23;20369;-87
2022/06/08 02:55:04;;;;;;;6.40;3.87;;;;;;;12.73;85.55;100806.44;6215339;23;20001;-87
2022/06/08 02:57:37;;;;;;;5.38;3.47;;;;;;;12.73;85.78;100802.97;6215060;23;20004;-87
2022/06/08 03:00:13;;;;;;;4.43;3.10;;;;;;;12.68;85.68;100797.91;6215283;23;20008;-87
2022/06/08 03:02:44;;;;;;;5.38;3.60;;;;;;;12.68;85.72;100810.91;6215441;23;20005;-86
2022/06/08 03:05:17;;;;;;;5.82;3.60;;;;;;;12.64;86.68;100801.44;6215051;23;20005;-86
2022/06/08 03:07:55;;;;;;;4.93;2.97;;;;;;;12.59;86.17;100787.72;6215024;23;20025;-86
2022/06/08 03:10:22;;;;;;;4.05;2.70;;;;;;;12.56;86.05;100788.63;6215683;23;20004;-87
2022/06/08 03:12:50;;;;;;;;;;;;;;;12.55;86.18;100778.25;6215048;23;20001;-86
2022/06/08 03:15:20;;;;;;;3.72;2.70;;;;;;;12.54;86.09;100784.34;6215717;23;19927;-87
2022/06/08 03:17:49;;;;;;;3.42;2.55;;;;;;;12.54;86.06;100787.81;6214495;23;20004;-86
2022/06/08 03:20:15;;;;;;;3.60;2.60;;;;;;;12.52;86.22;100780.03;6215533;23;20012;-86
2022/06/08 03:22:40;;;;;;;4.03;2.87;;;;;;;12.51;86.01;100782.69;6215383;23;20330;-86
2022/06/08 03:25:07;;;;;;;4.20;2.90;;;;;;;12.51;86.01;100788.72;6214794;23;20075;-86
2022/06/08 03:27:32;;;;;;;4.88;3.33;;;;;;;12.50;87.22;100784.41;6215403;23;20015;-85
2022/06/08 03:29:57;;;;;;;3.47;2.73;;;;;;;12.49;86.41;100790.53;6215159;23;20032;-86
2022/06/08 03:32:23;;;;;;;4.20;3.07;;;;;;;12.49;86.94;100789.66;6214441;23;20005;-86
2022/06/08 03:34:48;;;;;;;4.23;2.90;;;;;;;12.48;87.44;100782.75;6215153;23;20000;-86
2022/06/08 03:37:14;;;;;;;3.17;2.50;;;;;;;12.47;87.24;100779.31;6215211;23;20005;-87
2022/06/08 03:39:39;;;;;;;3.67;2.70;;;;;;;12.51;87.78;100790.50;6214223;23;20008;-86
2022/06/08 03:42:05;;;;;;;3.97;2.50;;;;;;;12.52;87.75;100785.25;6216877;23;20000;-86
2022/06/08 03:44:30;;;;;;;3.20;2.30;;;;;;;12.56;88.31;100796.44;6217784;23;20004;-86
2022/06/08 03:47:20;;;;;;;2.33;2.13;;;;;;;12.59;87.71;100793.75;6216977;23;20008;-86
2022/06/08 03:49:47;;;;;;;2.00;1.83;;;;;;;12.63;88.34;100790.19;6216185;23;20005;-86
2022/06/08 03:52:17;;;;;;;1.77;1.67;;;;;;;12.69;88.38;100796.13;6217532;23;20004;-86
2022/06/08 03:54:49;;;;;;;1.80;1.70;;;;;;;12.72;88.55;100791.69;6215340;23;20008;-86
2022/06/08 03:57:15;;;;;;;1.67;1.58;;;;;;;12.76;88.66;100798.53;6217073;23;20012;-86
2022/06/08 03:59:44;;;;;;;1.38;1.30;;;;;;;12.80;88.17;100794.97;6216414;23;20005;-86
2022/06/08 04:02:10;;;;;;;1.67;1.58;;;;;;;12.84;88.74;100795.75;6216480;23;20064;-86
2022/06/08 04:04:36;;;;;;;1.70;1.60;;;;;;;12.89;88.00;100798.25;6217049;23;20398;-86
2022/06/08 04:07:02;;;;;;;;;;;;;;;12.94;89.28;100791.19;6216351;23;20001;-86
2022/06/08 04:09:27;;;;;;;1.40;1.30;;;;;;;12.95;88.59;100787.66;6216766;23;19987;-86
2022/06/08 04:11:52;;;;;;;1.67;1.57;;;;;;;12.97;88.71;100784.13;6216881;23;20488;-86
2022/06/08 04:14:18;;;;;;;2.00;1.80;;;;;;;13.03;89.48;100787.44;6216108;23;20000;-86
2022/06/08 04:16:43;;;;;;;1.60;1.50;;;;;;;13.05;88.83;100783.94;6216886;23;20011;-86
2022/06/08 04:19:08;;;;;;;1.50;1.40;;;;;;;13.08;89.45;100786.44;6217601;23;20303;-87
2022/06/08 04:21:36;;;;;;;1.60;1.50;;;;;;;13.14;89.61;100772.38;6216922;23;20004;-86
2022/06/08 04:24:02;;;;;;;2.30;2.10;;;;;;;13.16;89.48;100769.75;6217837;23;20004;-86
2022/06/08 04:26:28;;;;;;;2.20;2.00;;;;;;;13.22;89.53;100772.19;6216900;23;20024;-87
2022/06/08 04:28:53;;;;;;;2.20;2.00;;;;;;;13.24;88.84;100767.78;6216244;23;20501;-86
2022/06/08 04:31:20;;;;;;;2.27;2.00;;;;;;;13.29;88.99;100771.09;6217112;23;20003;-86
2022/06/08 04:33:46;;;;;;;2.40;2.20;;;;;;;13.33;88.97;100777.94;6216651;23;20330;-86
2022/06/08 04:36:12;;;;;;;2.57;2.20;;;;;;;13.35;89.14;100776.16;6216083;23;20131;-87
2022/06/08 04:38:38;;;;;;;2.00;1.80;;;;;;;13.40;88.99;100769.09;6216239;23;20063;-85
2022/06/08 04:41:04;;;;;;;2.00;1.83;;;;;;;13.43;89.77;100771.63;6216932;23;20005;-86
2022/06/08 04:43:29;;;;;;;2.10;1.90;;;;;;;13.48;88.69;100770.63;6216175;23;20074;-86
2022/06/08 04:45:54;;;;;;;2.30;2.10;;;;;;;13.52;89.35;100772.25;6216532;23;20434;-86
2022/06/08 04:48:21;;;;;;;2.20;2.00;;;;;;;13.54;90.13;100760.03;6217002;23;20410;-86
2022/06/08 04:50:48;;;;;;;1.90;1.80;;;;;;;13.59;89.51;100748.56;6215721;23;20004;-86
2022/06/08 04:53:13;;;;;;;2.78;2.00;;;;;;;13.65;89.25;100749.28;6216215;23;20000;-86
2022/06/08 04:55:39;;;;;;;2.50;2.20;;;;;;;13.69;89.28;100743.94;6216298;23;20011;-86
2022/06/08 04:58:04;;;;;;;2.20;2.00;;;;;;;13.74;89.60;100735.97;6215390;23;20020;-87
2022/06/08 05:00:31;;;;;;;2.10;1.90;;;;;;;13.80;89.26;100745.38;6216882;23;20015;-86
2022/06/08 05:02:56;;;;;;;2.80;2.40;;;;;;;13.87;89.06;100742.53;6216620;23;20004;-87
2022/06/08 05:05:27;;;;;;;2.93;2.40;;;;;;;13.90;89.98;100733.75;6215581;23;20410;-86
2022/06/08 05:07:53;;;;;;;2.67;2.30;;;;;;;13.96;90.29;100740.53;6216244;23;20080;-86
2022/06/08 05:10:21;;;;;;;3.03;2.40;;;;;;;13.98;89.89;100744.78;6216115;23;20035;-85
2022/06/08 05:12:47;;;;;;;2.58;2.20;;;;;;;14.00;88.90;100734.31;6215797;23;20422;-85
2022/06/08 05:15:25;;;;;;;2.30;2.10;;;;;;;14.02;89.25;100733.38;6216548;23;20024;-86
2022/06/08 05:17:50;;;;;;;2.10;1.90;;;;;;;14.05;89.94;100733.28;6215328;23;20079;-87
2022/06/08 05:20:17;;;;;;;1.93;1.83;;;;;;;14.10;90.26;100737.47;6216431;23;20036;-86
2022/06/08 05:22:43;;;;;;;;;;;;;;;14.11;91.48;100719.19;6216193;23;20035;-85
2022/06/08 05:25:12;;;;;;;2.50;2.10;;;;;;;14.11;89.69;100720.91;6215505;23;19982;-86
2022/06/08 05:27:38;;;;;;;2.45;2.13;;;;;;;14.13;89.12;100719.13;6216023;23;20015;-86
2022/06/08 05:30:04;;;;;;;3.60;2.60;;;;;;;14.16;88.29;100714.66;6216705;23;20394;-85
2022/06/08 05:32:30;;;;;;;2.97;2.53;;;;;;;14.19;87.33;100714.56;6215625;23;20012;-86
2022/06/08 05:34:55;;;;;;;4.67;3.13;;;;;;;14.24;88.91;100708.34;6216066;23;20541;-86
2022/06/08 05:37:20;;;;;;;3.07;2.63;;;;;;;14.26;89.46;100707.38;6216301;23;20076;-86
2022/06/08 05:39:46;;;;;;;5.13;3.13;;;;;;;14.28;91.04;100695.13;6215030;23;20012;-86
2022/06/08 05:42:11;;;;;;;2.80;2.50;;;;;;;14.30;89.64;100693.31;6216452;23;20318;-87
2022/06/08 05:44:36;;;;;;;2.60;2.40;;;;;;;14.37;90.15;100691.34;6216131;23;20008;-85
2022/06/08 05:47:02;;;;;;;2.63;2.37;;;;;;;14.38;90.02;100690.44;6215354;23;20092;-86
2022/06/08 05:49:29;;;;;;;3.40;2.70;;;;;;;14.43;90.94;100690.28;6215948;23;19997;-85
2022/06/08 05:51:54;;;;;;;2.53;2.33;;;;;;;14.47;89.37;100686.69;6215556;23;20314;-86
2022/06/08 05:54:20;;;;;;;2.87;2.27;;;;;;;14.52;89.46;100690.84;6215143;23;20011;-86
2022/06/08 05:56:45;;;;;;;2.40;2.03;;;;;;;14.62;90.54;100693.13;6215285;23;20009;-86
2022/06/08 05:59:11;;;;;;;2.13;2.00;;;;;;;14.69;90.88;100683.34;6215188;23;20099;-86
2022/06/08 06:01:37;;;;;;;2.30;2.00;;;;;;;14.76;91.23;100675.25;6214952;23;20426;-85
2022/06/08 06:04:07;;;;;;;2.10;1.90;;;;;;;14.81;88.64;100668.09;6216044;23;20007;-85
2022/06/08 06:06:33;;;;;;;2.58;2.30;;;;;;;14.91;88.22;100670.41;6215157;23;20326;-85
2022/06/08 06:08:58;;;;;;;2.75;2.38;;;;;;;14.98;89.60;100672.69;6214858;23;20017;-84
2022/06/08 06:11:24;;;;;;;2.30;2.10;;;;;;;15.03;89.08;100667.31;6215751;23;20035;-84
2022/06/08 06:13:49;;;;;;;2.20;2.00;;;;;;;15.08;88.73;100669.78;6214958;23;20005;-84
2022/06/08 06:16:15;;;;;;;3.30;2.43;;;;;;;15.11;90.80;100672.25;6216511;23;20023;-85
2022/06/08 06:18:40;;;;;;;3.20;2.67;;;;;;;15.09;88.25;100671.44;6215951;23;20004;-84
2022/06/08 06:21:06;;;;;;;2.30;2.10;;;;;;;15.14;89.70;100674.75;6216206;23;20005;-84
2022/06/08 06:23:31;;;;;;;2.40;2.20;;;;;;;15.16;89.34;100672.94;6215601;23;20008;-86
2022/06/08 06:25:57;;;;;;;2.43;2.20;;;;;;;15.18;89.67;100673.75;6215426;23;20005;-86
2022/06/08 06:28:22;;;;;;;2.10;1.90;;;;;;;15.22;89.03;100677.94;6215519;23;20012;-87
2022/06/08 06:30:48;;;;;;;2.43;1.90;;;;;;;15.27;88.99;100673.41;6214841;23;20039;-87
2022/06/08 06:33:14;;;;;;;2.20;2.03;;;;;;;15.33;88.20;100674.94;6215944;23;20005;-86
2022/06/08 06:35:41;;;;;;;2.60;2.30;;;;;;;15.37;89.86;100675.66;6214156;23;20005;-86
2022/06/08 06:38:10;;;;;;;;;;;;;;;15.38;89.09;100680.81;6215721;23;20346;-87
2022/06/08 06:40:36;;;;;;;2.28;2.08;;;;;;;15.36;89.81;100681.81;6215654;23;19914;-88
2022/06/08 06:43:03;;;;;;;2.08;1.80;;;;;;;15.33;89.26;100677.53;6214775;23;20075;-85
2022/06/08 06:45:29;;;;;;;2.42;2.20;;;;;;;15.34;90.46;100681.88;6215476;23;20048;-85
2022/06/08 06:47:54;;;;;;;2.60;2.30;;;;;;;15.38;90.58;100674.75;6215008;23;20008;-85
2022/06/08 06:50:20;;;;;;;5.80;2.60;;;;;;;15.40;91.36;100676.38;6214958;23;20000;-84
2022/06/08 06:52:46;;;;;;;2.30;2.10;;;;;;;15.47;90.08;100676.19;6215265;23;20011;-84
2022/06/08 06:55:20;;;;;;;2.93;2.30;;;;;;;15.65;91.48;100661.53;6215262;23;20005;-83
2022/06/08 06:57:46;;;;;;;2.63;2.22;;;;;;;15.86;90.60;100659.84;6215840;23;20079;-86
2022/06/08 07:00:16;;;;;;;4.13;2.60;;;;;;;16.11;89.85;100662.28;6215569;23;20430;-86
2022/06/08 07:02:42;;;;;;;4.00;2.60;;;;;;;16.33;89.71;100666.63;6214084;23;20429;-86
2022/06/08 07:05:30;;;;;;;5.50;2.78;;;;;;;16.68;88.17;100659.91;6215763;23;20032;-86
2022/06/08 07:07:55;;;;;;;3.83;2.50;;;;;;;16.93;88.51;100661.44;6214393;23;20060;-87
2022/06/08 07:10:20;;;;;;;2.90;2.40;;;;;;;17.13;87.98;100649.22;6214517;23;20004;-86
2022/06/08 07:12:46;;;;;;;2.50;2.30;;;;;;;17.25;86.76;100653.03;6216109;23;20426;-84
2022/06/08 07:15:13;;;;;;;2.67;2.40;;;;;;;17.48;85.04;100651.09;6215313;23;20094;-90
2022/06/08 07:17:39;;;;;;;5.82;2.88;;;;;;;17.64;83.30;100657.34;6214970;23;20008;-90
2022/06/08 07:20:05;;;;;;;4.23;2.60;;;;;;;17.80;85.62;100651.31;6215493;23;20009;-88
2022/06/08 07:22:30;;;;;;;4.82;3.00;;;;;;;18.00;83.26;100645.13;6214712;23;20520;-94
2022/06/08 07:24:56;;;;;;;3.77;2.77;;;;;;;18.13;83.02;100640.97;6215558;23;20005;-92
2022/06/08 07:27:22;;;;;;;6.37;2.80;;;;;;;18.10;82.30;100641.13;6214936;23;20063;-84
2022/06/08 07:29:48;;;;;;;4.82;2.70;;;;;;;18.16;81.62;100645.22;6215081;23;20083;-85
2022/06/08 07:32:17;;;;;;;3.67;2.47;;;;;;;18.14;81.74;100647.06;6214660;23;20024;-85
2022/06/08 07:34:42;;;;;;;4.53;2.40;;;;;;;18.05;80.15;100641.34;6216025;23;20004;-90
2022/06/08 07:37:08;;;;;;;3.37;2.50;;;;;;;18.07;82.32;100638.63;6214530;23;20005;-91
2022/06/08 07:39:33;;;;;;;3.00;2.30;;;;;;;18.11;82.37;100634.09;6216008;23;20446;-91
2022/06/08 07:41:59;;;;;;;4.03;2.50;;;;;;;18.12;81.69;100635.81;6215098;23;20011;-90
2022/06/08 07:44:24;;;;;;;3.67;2.67;;;;;;;18.23;80.95;100635.25;6214843;23;20286;-89
2022/06/08 07:46:50;;;;;;;6.70;2.80;;;;;;;18.44;80.81;100636.78;6213795;23;20098;-76
2022/06/08 07:49:37;;;;;;;3.60;2.60;;;;;;;18.53;80.95;100628.41;6215056;23;19996;-90
2022/06/08 07:52:05;;;;;;;4.03;2.40;;;;;;;18.56;80.84;100630.06;6214579;23;20067;-84
2022/06/08 07:54:31;;;;;;;3.40;2.25;;;;;;;18.51;81.00;100632.06;6214943;23;20429;-89
2022/06/08 07:56:57;;;;;;;2.80;2.13;;;;;;;18.49;79.55;100641.78;6215136;23;20108;-89
2022/06/08 07:59:27;;;;;;;4.05;2.50;;;;;;;18.43;79.90;100640.31;6214999;23;20004;-81
2022/06/08 08:01:55;;;;;;;2.60;2.40;;;;;;;18.38;80.32;100637.09;6214610;23;20000;-88
2022/06/08 08:04:21;;;;;;;3.30;2.30;;;;;;;18.39;80.51;100633.56;6213944;23;20321;-84
2022/06/08 08:06:47;;;;;;;4.90;2.55;;;;;;;18.36;78.56;100642.41;6214475;23;20039;-83
2022/06/08 08:09:17;;;;;;;3.38;2.33;;;;;;;18.39;80.43;100645.81;6214314;23;20009;-86
2022/06/08 08:11:47;;;;;;;2.10;1.90;;;;;;;18.46;80.97;100647.22;6215233;23;20011;-84
2022/06/08 08:14:13;;;;;;;4.78;2.40;;;;;;;18.50;80.22;100646.13;6213953;23;20080;-84
2022/06/08 08:16:40;;;;;;;3.33;2.20;;;;;;;18.46;79.83;100645.44;6214713;23;20376;-84
2022/06/08 08:19:05;;;;;;;4.72;2.70;;;;;;;18.37;77.71;100638.88;6215749;23;20039;-84
2022/06/08 08:21:32;;;;;;;2.73;2.40;;;;;;;18.37;79.32;100638.03;6213967;23;20004;-84
2022/06/08 08:23:58;;;;;;;3.72;2.30;;;;;;;18.34;78.97;100633.78;6214822;23;20011;-85
2022/06/08 08:26:24;;;;;;;6.45;2.45;;;;;;;18.33;79.40;100639.97;6214692;23;20059;-85
2022/06/08 08:28:50;;;;;;;4.13;2.40;;;;;;;18.28;79.02;100634.09;6214994;23;20013;-81
2022/06/08 08:31:15;;;;;;;2.80;2.10;;;;;;;18.20;78.68;100636.25;6217173;23;20001;-80
2022/06/08 08:33:40;;;;;;;2.90;1.90;;;;;;;18.17;79.11;100641.66;6216553;23;20299;-84
2022/06/08 08:36:06;;;;;;;3.70;2.30;;;;;;;18.09;78.41;100638.56;6216303;23;20039;-86
2022/06/08 08:38:31;;;;;;;4.53;2.10;;;;;;;18.02;78.21;100633.63;6216921;23;20087;-83
2022/06/08 08:40:59;;;;;;;5.40;2.53;;;;;;;17.90;78.68;100644.72;6217210;23;20008;-87
2022/06/08 08:43:31;;;;;;;3.33;2.13;;;;;;;17.82;79.49;100633.72;6215807;23;20012;-84
2022/06/08 08:46:09;;;;;;;4.97;2.75;;;;;;;17.75;78.07;100635.81;6218087;23;20330;-84
2022/06/08 08:48:47;;;;;;;4.60;2.67;;;;;;;17.65;78.86;100634.56;6216266;23;20001;-84
2022/06/08 08:51:17;;;;;;;4.15;2.42;;;;;;;17.61;79.95;100636.47;6217197;23;20004;-86
2022/06/08 08:53:43;;;;;;;4.18;2.40;;;;;;;17.59;80.11;100633.06;6216726;23;20003;-78
2022/06/08 08:56:15;;;;;;;4.73;2.70;;;;;;;17.58;79.44;100634.00;6217349;23;20322;-75
2022/06/08 08:58:44;;;;;;;3.20;2.28;;;;;;;17.57;79.96;100635.78;6216758;23;20008;-82
2022/06/08 09:01:28;;;;;;;2.50;2.00;;;;;;;17.65;79.73;100637.16;6216781;23;20080;-82
2022/06/08 09:04:05;;;;;;;2.85;2.15;;;;;;;17.70;79.78;100638.66;6215651;23;20012;-89
2022/06/08 09:06:33;;;;;;;3.17;1.90;;;;;;;17.73;79.84;100638.50;6216443;23;20012;-89
2022/06/08 09:09:02;;;;;;;2.03;1.92;;;;;;;17.77;80.06;100647.09;6217838;23;20012;-89
2022/06/08 09:11:37;;;;;;;3.80;2.20;;;;;;;17.81;80.39;100639.91;6216652;23;20072;-90
2022/06/08 09:14:13;;;;;;;4.88;2.22;;;;;;;17.77;79.99;100636.59;6191034;23;20005;-88
2022/06/08 09:16:54;;;;;;;;;;;;;;;17.78;80.28;100647.94;6216127;23;20005;-85
2022/06/08 09:19:32;;;;;;;6.00;2.78;;;;;;;17.69;78.96;100644.81;6216713;23;20280;-88
2022/06/08 09:22:04;;;;;;;4.05;2.28;;;;;;;17.58;78.79;100642.72;6217524;23;20422;-91
2022/06/08 09:24:44;;;;;;;3.28;2.17;;;;;;;17.54;79.72;100637.72;6216914;23;20058;-87
2022/06/08 09:27:29;;;;;;;2.97;1.90;;;;;;;17.55;80.54;100637.63;6216804;23;20024;-89
2022/06/08 09:30:12;;;;;;;5.65;2.13;;;;;;;17.49;80.76;100632.69;6216932;23;20008;-89
2022/06/08 09:32:44;;;;;;;3.95;2.60;;;;;;;17.42;79.92;100636.50;6215192;23;20421;-88
2022/06/08 09:35:34;;;;;;;7.22;2.50;;;;;;;17.34;80.11;100639.47;6217558;23;20005;-89
2022/06/08 09:38:02;;;;;;;2.38;1.90;;;;;;;17.34;80.66;100636.84;6216375;23;20047;-89
2022/06/08 09:40:40;;;;;;;3.65;1.80;;;;;;;17.33;80.25;100629.06;6217453;23;20009;-89
2022/06/08 09:43:27;;;;;;;4.78;2.15;;;;;;;17.29;80.53;100644.09;6216658;23;20414;-89
2022/06/08 09:51:25;;;;;;;3.97;2.15;;;;;;;17.24;81.04;100643.47;6216284;23;20004;-88
2022/06/08 09:52:34;;;;;;;2.20;2.00;;;;;;;17.23;81.64;100642.63;6216324;23;20504;-88
2022/06/08 09:55:09;;;;;;;3.78;2.10;;;;;;;17.26;82.31;100649.47;6166004;23;20023;-90
2022/06/08 09:57:43;;;;;;;2.40;2.10;;;;;;;17.26;81.76;100646.88;6216375;23;20004;-90
2022/06/08 10:00:28;;;;;;;4.35;2.10;;;;;;;17.21;82.21;100639.22;6215545;23;20091;-88
2022/06/08 10:03:31;;;;;;;5.75;2.33;;;;;;;17.13;81.90;100655.28;6216040;23;20012;-87
2022/06/08 10:05:57;;;;;;;3.88;2.40;;;;;;;17.04;83.12;100645.22;6215651;23;20004;-86
2022/06/08 10:08:27;;;;;;;4.83;2.50;;;;;;;16.91;82.06;100646.66;6216747;23;20044;-87
2022/06/08 10:10:55;;;;;;;3.50;1.98;;;;;;;16.81;83.41;100651.50;6215950;23;20004;-87
2022/06/08 10:13:30;;;;;;;4.22;2.05;;;;;;;16.75;82.36;100651.75;6216007;23;20330;-90
2022/06/08 10:16:04;;;;;;;5.32;2.00;;;;;;;16.75;83.02;100650.00;6216801;23;20009;-89
2022/06/08 10:18:37;;;;;;;3.05;1.85;;;;;;;16.74;83.32;100648.28;6216947;23;20008;-90
2022/06/08 10:21:13;;;;;;;4.13;1.90;;;;;;;16.74;84.22;100645.66;6215942;23;20005;-89
2022/06/08 10:23:41;;;;;;;;;;;;;;;16.69;83.17;100660.72;6217195;23;20020;-89
2022/06/08 10:26:37;;;;;;;4.45;2.08;;;;;;;16.70;83.44;100657.19;6217467;23;19908;-91
2022/06/08 10:29:28;;;;;;;2.83;1.83;;;;;;;16.73;84.27;100651.81;6215581;23;20005;-90
2022/06/08 10:32:14;;;;;;;3.35;1.80;;;;;;;16.68;83.48;100644.16;6217589;23;20015;-89
2022/06/08 10:34:40;;;;;;;;;;;;;;;16.67;85.11;100658.19;6215198;23;20015;-88
2022/06/08 10:37:31;;;;;;;2.63;1.98;;;;;;;16.59;85.48;100656.81;6215345;23;19908;-89
2022/06/08 10:39:57;;;;;;;4.18;2.20;;;;;;;16.51;85.31;100655.38;6216218;23;20012;-89
2022/06/08 10:42:40;;;;;;;3.20;2.10;;;;;;;16.45;86.00;100660.03;6215811;23;20008;-88
2022/06/08 10:45:21;;;;;;;2.53;1.95;;;;;;;16.39;84.82;100645.44;6215933;23;20015;-88
2022/06/08 10:47:54;;;;;;;3.28;1.80;;;;;;;16.36;87.14;100650.78;6215073;23;20005;-87
2022/06/08 10:50:33;;;;;;;4.18;2.33;;;;;;;16.30;86.32;100644.06;6215756;23;20016;-88
2022/06/08 10:56:22;;;;;;;8.65;2.63;;;;;;;16.16;87.80;100654.25;6158638;23;20008;-90
2022/06/08 10:58:57;;;;;;;4.40;2.50;;;;;;;16.14;86.42;100646.47;6215111;23;20369;-88
2022/06/08 11:01:31;;;;;;;5.97;2.55;;;;;;;16.09;86.58;100648.44;6215972;23;20004;-88
2022/06/08 11:03:57;;;;;;;4.63;2.30;;;;;;;16.12;87.45;100645.69;6214875;23;20008;-88
2022/06/08 11:06:54;;;;;;;7.20;2.65;;;;;;;16.16;86.95;100635.91;6215345;23;20415;-87
2022/06/08 11:09:34;;;;;;;3.20;2.20;;;;;;;16.15;88.07;100645.56;6214454;23;20031;-88
2022/06/08 11:12:04;;;;;;;8.07;2.70;;;;;;;16.11;86.69;100633.50;6215265;23;20023;-87
2022/06/08 11:14:51;;;;;;;5.30;2.35;;;;;;;16.09;86.58;100635.34;6215291;23;20356;-88
2022/06/08 11:17:35;;;;;;;3.13;2.20;;;;;;;16.11;86.02;100628.25;6215420;23;20012;-87
2022/06/08 11:20:19;;;;;;;5.10;2.13;;;;;;;16.14;86.64;100622.91;6207460;23;20440;-86
2022/06/08 11:23:10;;;;;;;4.28;2.30;;;;;;;16.09;87.36;100624.00;6215042;23;20012;-87
2022/06/08 11:25:58;;;;;;;4.07;2.20;;;;;;;16.06;87.27;100612.75;6214967;23;20005;-88
2022/06/08 11:28:39;;;;;;;3.95;2.10;;;;;;;16.09;86.81;100610.94;6214634;23;20011;-87
2022/06/08 11:31:10;;;;;;;5.15;2.08;;;;;;;16.08;86.05;100609.22;6214895;23;20011;-89
2022/06/08 11:33:58;;;;;;;2.22;1.70;;;;;;;16.11;86.65;100606.47;6215951;23;20070;-89
2022/06/08 11:36:36;;;;;;;2.85;1.90;;;;;;;16.13;86.99;100613.34;6215285;23;20031;-88
2022/06/08 11:39:17;;;;;;;2.03;1.80;;;;;;;16.11;86.39;100602.09;6215018;23;20055;-88
2022/06/08 11:41:44;;;;;;;2.60;1.90;;;;;;;16.13;86.43;100605.50;6215235;23;20015;-88
2022/06/08 11:44:18;;;;;;;2.72;1.80;;;;;;;16.14;87.72;100601.13;6214722;23;20064;-87
2022/06/08 11:47:02;;;;;;;4.13;2.53;;;;;;;16.07;86.95;100592.69;6214666;23;20005;-85
2022/06/08 11:49:33;;;;;;;3.90;2.20;;;;;;;16.03;86.69;100591.09;6215494;23;20001;-86
2022/06/08 11:51:59;;;;;;;3.28;2.10;;;;;;;16.03;86.45;100589.34;6214268;23;20039;-86
2022/06/08 11:54:27;;;;;;;;;;;;;;;16.03;86.35;100584.09;6215889;23;20420;-86